sensor_id;sensor_type;location;lat;lon;timestamp;temperature;humidity
22742;DHT22;11538;48.884;8.696;2023-06-22T00:00:12;22.80;99.90
22742;DHT22;11538;48.884;8.696;2023-06-22T00:02:39;22.70;99.90
22742;DHT22;11538;48.884;8.696;2023-06-22T00:05:06;22.70;99.90
22742;DHT22;11538;48.884;8.696;2023-06-22T00:07:33;22.60;99.90
22742;DHT22;11538;48.884;8.696;2023-06-22T00:10:00;22.60;99.90
22742;DHT22;11538;48.884;8.696;2023-06-22T00:12:27;22.60;99.90
22742;DHT22;11538;48.884;8.696;2023-06-22T00:14:54;22.60;99.90
22742;DHT22;11538;48.884;8.696;2023-06-22T00:17:21;22.60;99.90
22742;DHT22;11538;48.884;8.696;2023-06-22T00:19:48;22.60;99.90
22742;DHT22;11538;48.884;8.696;2023-06-22T00:22:19;22.60;99.90
22742;DHT22;11538;48.884;8.696;2023-06-22T00:24:56;22.60;99.90
22742;DHT22;11538;48.884;8.696;2023-06-22T00:27:23;22.50;99.90
22742;DHT22;11538;48.884;8.696;2023-06-22T00:29:50;22.50;99.90
22742;DHT22;11538;48.884;8.696;2023-06-22T00:32:17;22.40;99.90
22742;DHT22;11538;48.884;8.696;2023-06-22T00:34:45;22.30;99.90
22742;DHT22;11538;48.884;8.696;2023-06-22T00:37:12;22.30;99.90
22742;DHT22;11538;48.884;8.696;2023-06-22T00:39:39;22.30;99.90
22742;DHT22;11538;48.884;8.696;2023-06-22T00:42:06;22.30;99.90
22742;DHT22;11538;48.884;8.696;2023-06-22T00:44:33;22.30;99.90
22742;DHT22;11538;48.884;8.696;2023-06-22T00:47:00;22.40;99.90
22742;DHT22;11538;48.884;8.696;2023-06-22T00:49:27;22.40;99.90
22742;DHT22;11538;48.884;8.696;2023-06-22T00:51:54;22.50;99.90
22742;DHT22;11538;48.884;8.696;2023-06-22T00:54:24;22.50;99.90
22742;DHT22;11538;48.884;8.696;2023-06-22T00:56:53;22.50;99.90
22742;DHT22;11538;48.884;8.696;2023-06-22T00:59:23;22.50;99.90
22742;DHT22;11538;48.884;8.696;2023-06-22T01:01:52;22.40;99.90
22742;DHT22;11538;48.884;8.696;2023-06-22T01:04:21;22.30;99.90
22742;DHT22;11538;48.884;8.696;2023-06-22T01:07:03;22.30;99.90
22742;DHT22;11538;48.884;8.696;2023-06-22T01:09:51;22.20;99.90
22742;DHT22;11538;48.884;8.696;2023-06-22T01:12:29;22.20;99.90
22742;DHT22;11538;48.884;8.696;2023-06-22T01:15:14;22.20;99.90
22742;DHT22;11538;48.884;8.696;2023-06-22T01:17:48;22.20;99.90
22742;DHT22;11538;48.884;8.696;2023-06-22T01:20:19;22.10;99.90
22742;DHT22;11538;48.884;8.696;2023-06-22T01:25:48;22.20;99.90
22742;DHT22;11538;48.884;8.696;2023-06-22T01:31:08;22.00;99.90
22742;DHT22;11538;48.884;8.696;2023-06-22T01:33:42;21.90;99.90
22742;DHT22;11538;48.884;8.696;2023-06-22T01:36:10;21.80;99.90
22742;DHT22;11538;48.884;8.696;2023-06-22T01:38:39;21.80;99.90
22742;DHT22;11538;48.884;8.696;2023-06-22T01:41:06;21.80;99.90
22742;DHT22;11538;48.884;8.696;2023-06-22T01:43:34;21.80;99.90
22742;DHT22;11538;48.884;8.696;2023-06-22T01:46:03;21.80;99.90
22742;DHT22;11538;48.884;8.696;2023-06-22T01:48:31;21.80;99.90
22742;DHT22;11538;48.884;8.696;2023-06-22T01:50:59;21.80;99.90
22742;DHT22;11538;48.884;8.696;2023-06-22T01:53:26;21.80;99.90
22742;DHT22;11538;48.884;8.696;2023-06-22T01:55:53;21.80;99.90
22742;DHT22;11538;48.884;8.696;2023-06-22T01:58:20;21.80;99.90
22742;DHT22;11538;48.884;8.696;2023-06-22T02:00:58;21.70;99.90
22742;DHT22;11538;48.884;8.696;2023-06-22T02:03:41;21.70;99.90
22742;DHT22;11538;48.884;8.696;2023-06-22T02:06:20;21.70;99.90
22742;DHT22;11538;48.884;8.696;2023-06-22T02:08:57;21.70;99.90
22742;DHT22;11538;48.884;8.696;2023-06-22T02:11:28;21.60;99.90
22742;DHT22;11538;48.884;8.696;2023-06-22T02:13:58;21.60;99.90
22742;DHT22;11538;48.884;8.696;2023-06-22T02:16:26;21.60;99.90
22742;DHT22;11538;48.884;8.696;2023-06-22T02:18:56;21.60;99.90
22742;DHT22;11538;48.884;8.696;2023-06-22T02:21:30;21.50;99.90
22742;DHT22;11538;48.884;8.696;2023-06-22T02:23:58;21.50;99.90
22742;DHT22;11538;48.884;8.696;2023-06-22T02:26:25;21.50;99.90
22742;DHT22;11538;48.884;8.696;2023-06-22T02:28:53;21.40;99.90
22742;DHT22;11538;48.884;8.696;2023-06-22T02:31:21;21.30;99.90
22742;DHT22;11538;48.884;8.696;2023-06-22T02:33:48;21.30;99.90
22742;DHT22;11538;48.884;8.696;2023-06-22T02:36:15;21.30;99.90
22742;DHT22;11538;48.884;8.696;2023-06-22T02:38:43;21.30;99.90
22742;DHT22;11538;48.884;8.696;2023-06-22T02:41:17;21.30;99.90
22742;DHT22;11538;48.884;8.696;2023-06-22T02:43:47;21.30;99.90
22742;DHT22;11538;48.884;8.696;2023-06-22T02:46:14;21.20;99.90
22742;DHT22;11538;48.884;8.696;2023-06-22T02:48:41;21.10;99.90
22742;DHT22;11538;48.884;8.696;2023-06-22T02:51:11;21.20;99.90
22742;DHT22;11538;48.884;8.696;2023-06-22T02:53:38;21.00;99.90
22742;DHT22;11538;48.884;8.696;2023-06-22T02:56:05;21.00;99.90
22742;DHT22;11538;48.884;8.696;2023-06-22T02:58:32;21.00;99.90
22742;DHT22;11538;48.884;8.696;2023-06-22T03:01:05;21.00;99.90
22742;DHT22;11538;48.884;8.696;2023-06-22T03:03:32;20.90;99.90
22742;DHT22;11538;48.884;8.696;2023-06-22T03:06:00;20.90;99.90
22742;DHT22;11538;48.884;8.696;2023-06-22T03:08:28;20.80;99.90
22742;DHT22;11538;48.884;8.696;2023-06-22T03:10:55;20.80;99.90
22742;DHT22;11538;48.884;8.696;2023-06-22T03:13:23;20.80;99.90
22742;DHT22;11538;48.884;8.696;2023-06-22T03:15:50;20.80;99.90
22742;DHT22;11538;48.884;8.696;2023-06-22T03:18:17;20.80;99.90
22742;DHT22;11538;48.884;8.696;2023-06-22T03:20:44;20.80;99.90
22742;DHT22;11538;48.884;8.696;2023-06-22T03:23:11;20.80;99.90
22742;DHT22;11538;48.884;8.696;2023-06-22T03:25:38;20.80;99.90
22742;DHT22;11538;48.884;8.696;2023-06-22T03:28:05;20.80;99.90
22742;DHT22;11538;48.884;8.696;2023-06-22T03:30:32;20.70;99.90
22742;DHT22;11538;48.884;8.696;2023-06-22T03:32:59;20.70;99.90
22742;DHT22;11538;48.884;8.696;2023-06-22T03:35:26;20.70;99.90
22742;DHT22;11538;48.884;8.696;2023-06-22T03:37:53;20.70;99.90
22742;DHT22;11538;48.884;8.696;2023-06-22T03:40:20;20.80;99.90
22742;DHT22;11538;48.884;8.696;2023-06-22T03:42:47;20.80;99.90
22742;DHT22;11538;48.884;8.696;2023-06-22T03:45:14;20.80;99.90
22742;DHT22;11538;48.884;8.696;2023-06-22T03:47:41;20.80;99.90
22742;DHT22;11538;48.884;8.696;2023-06-22T03:50:08;20.80;99.90
22742;DHT22;11538;48.884;8.696;2023-06-22T03:52:38;20.80;99.90
22742;DHT22;11538;48.884;8.696;2023-06-22T03:55:05;20.80;99.90
22742;DHT22;11538;48.884;8.696;2023-06-22T03:57:33;20.80;99.90
22742;DHT22;11538;48.884;8.696;2023-06-22T04:00:01;20.80;99.90
22742;DHT22;11538;48.884;8.696;2023-06-22T04:02:32;20.80;99.90
22742;DHT22;11538;48.884;8.696;2023-06-22T04:04:59;20.80;99.90
22742;DHT22;11538;48.884;8.696;2023-06-22T04:07:29;20.70;99.90
22742;DHT22;11538;48.884;8.696;2023-06-22T04:09:56;20.70;99.90
22742;DHT22;11538;48.884;8.696;2023-06-22T04:12:23;20.70;99.90
22742;DHT22;11538;48.884;8.696;2023-06-22T04:14:50;20.60;99.90
22742;DHT22;11538;48.884;8.696;2023-06-22T04:17:17;20.60;99.90
22742;DHT22;11538;48.884;8.696;2023-06-22T04:19:49;20.50;99.90
22742;DHT22;11538;48.884;8.696;2023-06-22T04:22:16;20.50;99.90
22742;DHT22;11538;48.884;8.696;2023-06-22T04:24:44;20.50;99.90
22742;DHT22;11538;48.884;8.696;2023-06-22T04:27:12;20.50;99.90
22742;DHT22;11538;48.884;8.696;2023-06-22T04:29:39;20.50;99.90
22742;DHT22;11538;48.884;8.696;2023-06-22T04:32:16;20.50;99.90
22742;DHT22;11538;48.884;8.696;2023-06-22T04:34:43;20.60;99.90
22742;DHT22;11538;48.884;8.696;2023-06-22T04:37:10;20.70;99.90
22742;DHT22;11538;48.884;8.696;2023-06-22T04:39:42;20.70;99.90
22742;DHT22;11538;48.884;8.696;2023-06-22T04:42:10;20.80;99.90
22742;DHT22;11538;48.884;8.696;2023-06-22T04:44:37;20.80;99.90
22742;DHT22;11538;48.884;8.696;2023-06-22T04:47:06;20.90;99.90
22742;DHT22;11538;48.884;8.696;2023-06-22T04:49:36;21.00;99.90
22742;DHT22;11538;48.884;8.696;2023-06-22T04:52:09;21.00;99.90
22742;DHT22;11538;48.884;8.696;2023-06-22T04:54:38;21.10;99.90
22742;DHT22;11538;48.884;8.696;2023-06-22T04:57:07;21.10;99.90
22742;DHT22;11538;48.884;8.696;2023-06-22T04:59:38;21.10;99.90
22742;DHT22;11538;48.884;8.696;2023-06-22T05:02:05;21.20;99.90
22742;DHT22;11538;48.884;8.696;2023-06-22T05:04:33;21.30;99.90
22742;DHT22;11538;48.884;8.696;2023-06-22T05:07:02;21.30;99.90
22742;DHT22;11538;48.884;8.696;2023-06-22T05:09:30;21.40;99.90
22742;DHT22;11538;48.884;8.696;2023-06-22T05:11:57;21.40;99.90
22742;DHT22;11538;48.884;8.696;2023-06-22T05:14:24;21.50;99.90
22742;DHT22;11538;48.884;8.696;2023-06-22T05:16:51;21.50;99.90
22742;DHT22;11538;48.884;8.696;2023-06-22T05:19:25;21.60;99.90
22742;DHT22;11538;48.884;8.696;2023-06-22T05:22:01;21.60;99.90
22742;DHT22;11538;48.884;8.696;2023-06-22T05:24:28;21.70;99.90
22742;DHT22;11538;48.884;8.696;2023-06-22T05:26:55;21.70;99.90
22742;DHT22;11538;48.884;8.696;2023-06-22T05:29:39;21.80;99.90
22742;DHT22;11538;48.884;8.696;2023-06-22T05:32:24;21.80;99.90
22742;DHT22;11538;48.884;8.696;2023-06-22T05:35:09;21.90;99.90
22742;DHT22;11538;48.884;8.696;2023-06-22T05:37:36;21.90;99.90
22742;DHT22;11538;48.884;8.696;2023-06-22T05:40:03;22.00;99.90
22742;DHT22;11538;48.884;8.696;2023-06-22T05:42:30;22.00;99.90
22742;DHT22;11538;48.884;8.696;2023-06-22T05:45:00;22.00;99.90
22742;DHT22;11538;48.884;8.696;2023-06-22T05:47:27;22.10;99.90
22742;DHT22;11538;48.884;8.696;2023-06-22T05:49:54;22.10;99.90
22742;DHT22;11538;48.884;8.696;2023-06-22T05:52:21;22.20;99.90
22742;DHT22;11538;48.884;8.696;2023-06-22T05:54:48;22.20;99.90
22742;DHT22;11538;48.884;8.696;2023-06-22T05:57:15;22.20;99.90
22742;DHT22;11538;48.884;8.696;2023-06-22T05:59:42;22.30;99.90
22742;DHT22;11538;48.884;8.696;2023-06-22T06:02:08;22.30;99.90
22742;DHT22;11538;48.884;8.696;2023-06-22T06:04:35;22.40;99.90
22742;DHT22;11538;48.884;8.696;2023-06-22T06:07:03;22.40;99.90
22742;DHT22;11538;48.884;8.696;2023-06-22T06:09:29;22.40;99.90
22742;DHT22;11538;48.884;8.696;2023-06-22T06:11:56;22.50;99.90
22742;DHT22;11538;48.884;8.696;2023-06-22T06:14:23;22.50;99.90
22742;DHT22;11538;48.884;8.696;2023-06-22T06:16:50;22.50;99.90
22742;DHT22;11538;48.884;8.696;2023-06-22T06:19:17;22.60;99.90
22742;DHT22;11538;48.884;8.696;2023-06-22T06:21:44;22.60;99.90
22742;DHT22;11538;48.884;8.696;2023-06-22T06:24:11;22.70;99.90
22742;DHT22;11538;48.884;8.696;2023-06-22T06:26:38;22.80;99.90
22742;DHT22;11538;48.884;8.696;2023-06-22T06:29:09;22.80;99.90
22742;DHT22;11538;48.884;8.696;2023-06-22T06:31:35;22.90;99.90
22742;DHT22;11538;48.884;8.696;2023-06-22T06:34:02;22.90;99.90
22742;DHT22;11538;48.884;8.696;2023-06-22T06:36:29;23.00;99.90
22742;DHT22;11538;48.884;8.696;2023-06-22T06:38:56;23.00;99.90
22742;DHT22;11538;48.884;8.696;2023-06-22T06:41:23;23.20;99.90
22742;DHT22;11538;48.884;8.696;2023-06-22T06:43:50;23.20;99.90
22742;DHT22;11538;48.884;8.696;2023-06-22T06:46:17;23.30;99.90
22742;DHT22;11538;48.884;8.696;2023-06-22T06:48:45;23.30;99.90
22742;DHT22;11538;48.884;8.696;2023-06-22T06:51:13;23.40;99.90
22742;DHT22;11538;48.884;8.696;2023-06-22T06:53:40;23.50;99.90
22742;DHT22;11538;48.884;8.696;2023-06-22T06:56:07;23.50;99.90
22742;DHT22;11538;48.884;8.696;2023-06-22T06:58:38;23.60;99.90
22742;DHT22;11538;48.884;8.696;2023-06-22T07:01:08;23.70;99.90
22742;DHT22;11538;48.884;8.696;2023-06-22T07:03:36;23.70;99.90
22742;DHT22;11538;48.884;8.696;2023-06-22T07:06:02;23.80;99.90
22742;DHT22;11538;48.884;8.696;2023-06-22T07:08:30;24.00;99.90
22742;DHT22;11538;48.884;8.696;2023-06-22T07:10:59;24.10;99.90
22742;DHT22;11538;48.884;8.696;2023-06-22T07:13:27;24.20;99.90
22742;DHT22;11538;48.884;8.696;2023-06-22T07:15:54;24.30;99.90
22742;DHT22;11538;48.884;8.696;2023-06-22T07:18:21;24.40;99.90
22742;DHT22;11538;48.884;8.696;2023-06-22T07:20:49;24.50;99.90
22742;DHT22;11538;48.884;8.696;2023-06-22T07:23:16;24.60;99.90
22742;DHT22;11538;48.884;8.696;2023-06-22T07:25:44;24.70;99.90
22742;DHT22;11538;48.884;8.696;2023-06-22T07:28:10;24.80;99.90
22742;DHT22;11538;48.884;8.696;2023-06-22T07:30:37;24.90;99.90
22742;DHT22;11538;48.884;8.696;2023-06-22T07:33:04;25.10;99.90
22742;DHT22;11538;48.884;8.696;2023-06-22T07:35:34;25.10;99.90
22742;DHT22;11538;48.884;8.696;2023-06-22T07:38:01;25.10;99.90
22742;DHT22;11538;48.884;8.696;2023-06-22T07:40:32;25.20;99.90
22742;DHT22;11538;48.884;8.696;2023-06-22T07:43:00;25.30;99.90
22742;DHT22;11538;48.884;8.696;2023-06-22T07:45:27;25.40;99.90
22742;DHT22;11538;48.884;8.696;2023-06-22T07:47:53;25.50;99.90
22742;DHT22;11538;48.884;8.696;2023-06-22T07:50:20;25.60;99.90
22742;DHT22;11538;48.884;8.696;2023-06-22T07:52:48;25.70;99.90
22742;DHT22;11538;48.884;8.696;2023-06-22T07:55:15;25.90;99.90
22742;DHT22;11538;48.884;8.696;2023-06-22T07:57:42;26.00;99.90
22742;DHT22;11538;48.884;8.696;2023-06-22T08:00:10;26.10;99.90
22742;DHT22;11538;48.884;8.696;2023-06-22T08:02:47;26.30;99.90
22742;DHT22;11538;48.884;8.696;2023-06-22T08:05:14;26.50;99.90
22742;DHT22;11538;48.884;8.696;2023-06-22T08:07:44;26.70;99.90
22742;DHT22;11538;48.884;8.696;2023-06-22T08:10:14;26.70;99.90
22742;DHT22;11538;48.884;8.696;2023-06-22T08:12:41;26.80;99.90
22742;DHT22;11538;48.884;8.696;2023-06-22T08:15:09;26.90;99.90
22742;DHT22;11538;48.884;8.696;2023-06-22T08:17:37;27.10;99.90
22742;DHT22;11538;48.884;8.696;2023-06-22T08:20:06;27.20;99.90
22742;DHT22;11538;48.884;8.696;2023-06-22T08:22:40;27.20;99.90
22742;DHT22;11538;48.884;8.696;2023-06-22T08:25:08;27.30;99.90
22742;DHT22;11538;48.884;8.696;2023-06-22T08:27:36;27.40;99.90
22742;DHT22;11538;48.884;8.696;2023-06-22T08:30:03;27.40;99.90
22742;DHT22;11538;48.884;8.696;2023-06-22T08:32:31;27.50;99.90
22742;DHT22;11538;48.884;8.696;2023-06-22T08:35:01;27.50;99.90
22742;DHT22;11538;48.884;8.696;2023-06-22T08:37:28;27.50;99.90
22742;DHT22;11538;48.884;8.696;2023-06-22T08:39:59;27.50;99.90
22742;DHT22;11538;48.884;8.696;2023-06-22T08:42:27;27.40;99.90
22742;DHT22;11538;48.884;8.696;2023-06-22T08:44:55;27.30;99.90
22742;DHT22;11538;48.884;8.696;2023-06-22T08:47:22;27.20;99.90
22742;DHT22;11538;48.884;8.696;2023-06-22T08:49:50;27.20;99.90
22742;DHT22;11538;48.884;8.696;2023-06-22T08:52:18;27.10;99.90
22742;DHT22;11538;48.884;8.696;2023-06-22T08:54:47;27.10;99.90
22742;DHT22;11538;48.884;8.696;2023-06-22T08:57:14;27.00;99.90
22742;DHT22;11538;48.884;8.696;2023-06-22T08:59:42;27.10;99.90
22742;DHT22;11538;48.884;8.696;2023-06-22T09:02:09;27.10;99.90
22742;DHT22;11538;48.884;8.696;2023-06-22T09:04:36;27.30;99.90
22742;DHT22;11538;48.884;8.696;2023-06-22T09:07:04;27.50;99.90
22742;DHT22;11538;48.884;8.696;2023-06-22T09:09:31;27.80;99.90
22742;DHT22;11538;48.884;8.696;2023-06-22T09:11:58;28.00;99.90
22742;DHT22;11538;48.884;8.696;2023-06-22T09:14:25;28.30;99.90
22742;DHT22;11538;48.884;8.696;2023-06-22T09:16:52;28.50;99.90
22742;DHT22;11538;48.884;8.696;2023-06-22T09:19:19;28.70;99.90
22742;DHT22;11538;48.884;8.696;2023-06-22T09:21:46;28.90;99.90
22742;DHT22;11538;48.884;8.696;2023-06-22T09:24:13;29.10;99.90
22742;DHT22;11538;48.884;8.696;2023-06-22T09:26:40;29.50;99.90
22742;DHT22;11538;48.884;8.696;2023-06-22T09:29:07;29.70;99.90
22742;DHT22;11538;48.884;8.696;2023-06-22T09:31:37;29.90;99.90
22742;DHT22;11538;48.884;8.696;2023-06-22T09:34:04;30.10;99.90
22742;DHT22;11538;48.884;8.696;2023-06-22T09:36:32;30.30;99.90
22742;DHT22;11538;48.884;8.696;2023-06-22T09:38:59;30.50;99.90
22742;DHT22;11538;48.884;8.696;2023-06-22T09:41:28;30.70;99.90
22742;DHT22;11538;48.884;8.696;2023-06-22T09:43:55;30.80;99.90
22742;DHT22;11538;48.884;8.696;2023-06-22T09:46:22;30.80;99.90
22742;DHT22;11538;48.884;8.696;2023-06-22T09:48:52;30.80;99.90
22742;DHT22;11538;48.884;8.696;2023-06-22T09:51:19;30.80;99.90
22742;DHT22;11538;48.884;8.696;2023-06-22T09:53:48;30.80;99.90
22742;DHT22;11538;48.884;8.696;2023-06-22T09:56:15;30.70;99.90
22742;DHT22;11538;48.884;8.696;2023-06-22T09:58:43;30.80;99.90
22742;DHT22;11538;48.884;8.696;2023-06-22T10:01:11;30.90;99.90
22742;DHT22;11538;48.884;8.696;2023-06-22T10:03:37;30.90;99.90
22742;DHT22;11538;48.884;8.696;2023-06-22T10:06:05;31.00;99.90
22742;DHT22;11538;48.884;8.696;2023-06-22T10:08:31;31.00;99.90
22742;DHT22;11538;48.884;8.696;2023-06-22T10:10:58;31.00;99.90
22742;DHT22;11538;48.884;8.696;2023-06-22T10:13:25;30.90;99.90
22742;DHT22;11538;48.884;8.696;2023-06-22T10:15:52;30.90;99.90
22742;DHT22;11538;48.884;8.696;2023-06-22T10:18:20;30.80;99.90
22742;DHT22;11538;48.884;8.696;2023-06-22T10:20:50;30.70;99.90
22742;DHT22;11538;48.884;8.696;2023-06-22T10:23:20;30.60;99.90
22742;DHT22;11538;48.884;8.696;2023-06-22T10:25:48;30.60;99.90
22742;DHT22;11538;48.884;8.696;2023-06-22T10:28:15;30.60;99.90
22742;DHT22;11538;48.884;8.696;2023-06-22T10:30:42;30.50;99.90
22742;DHT22;11538;48.884;8.696;2023-06-22T10:33:11;30.50;99.90
22742;DHT22;11538;48.884;8.696;2023-06-22T10:35:38;30.50;99.90
22742;DHT22;11538;48.884;8.696;2023-06-22T10:38:06;30.50;99.90
22742;DHT22;11538;48.884;8.696;2023-06-22T10:40:33;30.50;99.90
22742;DHT22;11538;48.884;8.696;2023-06-22T10:43:00;30.50;99.90
22742;DHT22;11538;48.884;8.696;2023-06-22T10:45:27;30.40;99.90
22742;DHT22;11538;48.884;8.696;2023-06-22T10:47:55;30.40;99.90
22742;DHT22;11538;48.884;8.696;2023-06-22T10:50:22;30.40;99.90
22742;DHT22;11538;48.884;8.696;2023-06-22T10:52:51;30.30;99.90
22742;DHT22;11538;48.884;8.696;2023-06-22T10:55:18;30.30;99.90
22742;DHT22;11538;48.884;8.696;2023-06-22T10:57:45;30.30;99.90
22742;DHT22;11538;48.884;8.696;2023-06-22T11:00:14;30.30;99.90
22742;DHT22;11538;48.884;8.696;2023-06-22T11:02:43;30.30;99.90
22742;DHT22;11538;48.884;8.696;2023-06-22T11:05:11;30.30;99.90
22742;DHT22;11538;48.884;8.696;2023-06-22T11:07:42;30.30;99.90
22742;DHT22;11538;48.884;8.696;2023-06-22T11:10:11;30.30;99.90
22742;DHT22;11538;48.884;8.696;2023-06-22T11:12:38;30.40;99.90
22742;DHT22;11538;48.884;8.696;2023-06-22T11:15:06;30.40;99.90
22742;DHT22;11538;48.884;8.696;2023-06-22T11:17:34;30.50;99.90
22742;DHT22;11538;48.884;8.696;2023-06-22T11:20:01;30.60;99.90
22742;DHT22;11538;48.884;8.696;2023-06-22T11:22:31;30.60;99.90
22742;DHT22;11538;48.884;8.696;2023-06-22T11:25:00;30.70;99.90
22742;DHT22;11538;48.884;8.696;2023-06-22T11:27:27;30.80;99.90
22742;DHT22;11538;48.884;8.696;2023-06-22T11:29:54;30.90;99.90
22742;DHT22;11538;48.884;8.696;2023-06-22T11:32:22;30.90;99.90
22742;DHT22;11538;48.884;8.696;2023-06-22T11:34:49;30.90;99.90
22742;DHT22;11538;48.884;8.696;2023-06-22T11:37:16;30.90;99.90
22742;DHT22;11538;48.884;8.696;2023-06-22T11:39:43;30.80;99.90
22742;DHT22;11538;48.884;8.696;2023-06-22T11:42:19;30.80;99.90
22742;DHT22;11538;48.884;8.696;2023-06-22T11:44:46;30.70;99.90
22742;DHT22;11538;48.884;8.696;2023-06-22T11:47:13;30.60;99.90
22742;DHT22;11538;48.884;8.696;2023-06-22T11:49:40;30.60;99.90
22742;DHT22;11538;48.884;8.696;2023-06-22T11:52:08;30.50;99.90
22742;DHT22;11538;48.884;8.696;2023-06-22T11:54:35;30.30;99.90
22742;DHT22;11538;48.884;8.696;2023-06-22T11:57:02;30.30;99.90
22742;DHT22;11538;48.884;8.696;2023-06-22T11:59:29;30.10;99.90
22742;DHT22;11538;48.884;8.696;2023-06-22T12:01:57;30.00;99.90
22742;DHT22;11538;48.884;8.696;2023-06-22T12:04:25;30.00;99.90
22742;DHT22;11538;48.884;8.696;2023-06-22T12:06:52;29.90;99.90
22742;DHT22;11538;48.884;8.696;2023-06-22T12:09:19;29.80;99.90
22742;DHT22;11538;48.884;8.696;2023-06-22T12:11:45;29.70;99.90
22742;DHT22;11538;48.884;8.696;2023-06-22T12:14:12;29.70;99.90
22742;DHT22;11538;48.884;8.696;2023-06-22T12:16:39;29.70;99.90
22742;DHT22;11538;48.884;8.696;2023-06-22T12:19:06;29.70;99.90
22742;DHT22;11538;48.884;8.696;2023-06-22T12:21:33;29.70;99.90
22742;DHT22;11538;48.884;8.696;2023-06-22T12:24:00;29.60;99.90
22742;DHT22;11538;48.884;8.696;2023-06-22T12:26:26;29.60;99.90
22742;DHT22;11538;48.884;8.696;2023-06-22T12:28:53;29.70;99.90
22742;DHT22;11538;48.884;8.696;2023-06-22T12:31:20;29.70;99.90
22742;DHT22;11538;48.884;8.696;2023-06-22T12:33:47;29.80;99.90
22742;DHT22;11538;48.884;8.696;2023-06-22T12:36:14;30.00;99.90
22742;DHT22;11538;48.884;8.696;2023-06-22T12:38:43;30.20;99.90
22742;DHT22;11538;48.884;8.696;2023-06-22T12:41:09;30.40;99.90
22742;DHT22;11538;48.884;8.696;2023-06-22T12:43:36;30.60;99.90
22742;DHT22;11538;48.884;8.696;2023-06-22T12:46:03;30.80;99.90
22742;DHT22;11538;48.884;8.696;2023-06-22T12:48:33;30.90;99.90
22742;DHT22;11538;48.884;8.696;2023-06-22T12:51:00;31.00;99.90
22742;DHT22;11538;48.884;8.696;2023-06-22T12:53:27;31.10;99.90
22742;DHT22;11538;48.884;8.696;2023-06-22T12:55:54;31.20;99.90
22742;DHT22;11538;48.884;8.696;2023-06-22T12:58:22;31.20;99.90
22742;DHT22;11538;48.884;8.696;2023-06-22T13:00:49;31.20;99.90
22742;DHT22;11538;48.884;8.696;2023-06-22T13:03:16;31.30;99.90
22742;DHT22;11538;48.884;8.696;2023-06-22T13:05:43;31.40;99.90
22742;DHT22;11538;48.884;8.696;2023-06-22T13:08:10;31.40;99.90
22742;DHT22;11538;48.884;8.696;2023-06-22T13:10:38;31.40;99.90
22742;DHT22;11538;48.884;8.696;2023-06-22T13:13:05;31.50;99.90
22742;DHT22;11538;48.884;8.696;2023-06-22T13:15:32;31.70;99.90
22742;DHT22;11538;48.884;8.696;2023-06-22T13:18:00;31.80;99.90
22742;DHT22;11538;48.884;8.696;2023-06-22T13:20:28;32.00;99.90
22742;DHT22;11538;48.884;8.696;2023-06-22T13:22:55;32.10;99.90
22742;DHT22;11538;48.884;8.696;2023-06-22T13:25:23;32.20;99.90
22742;DHT22;11538;48.884;8.696;2023-06-22T13:27:54;32.40;99.90
22742;DHT22;11538;48.884;8.696;2023-06-22T13:30:20;32.70;99.90
22742;DHT22;11538;48.884;8.696;2023-06-22T13:33:04;33.00;99.90
22742;DHT22;11538;48.884;8.696;2023-06-22T13:35:49;33.50;99.90
22742;DHT22;11538;48.884;8.696;2023-06-22T13:38:16;34.00;99.90
22742;DHT22;11538;48.884;8.696;2023-06-22T13:40:44;34.50;99.90
22742;DHT22;11538;48.884;8.696;2023-06-22T13:43:11;34.80;99.90
22742;DHT22;11538;48.884;8.696;2023-06-22T13:45:38;35.10;99.90
22742;DHT22;11538;48.884;8.696;2023-06-22T13:48:23;35.20;99.90
22742;DHT22;11538;48.884;8.696;2023-06-22T13:51:09;35.30;99.90
22742;DHT22;11538;48.884;8.696;2023-06-22T13:53:36;35.20;99.90
22742;DHT22;11538;48.884;8.696;2023-06-22T13:56:03;35.20;99.90
22742;DHT22;11538;48.884;8.696;2023-06-22T13:58:30;35.30;99.90
22742;DHT22;11538;48.884;8.696;2023-06-22T14:00:58;35.50;99.90
22742;DHT22;11538;48.884;8.696;2023-06-22T14:03:26;35.50;99.90
22742;DHT22;11538;48.884;8.696;2023-06-22T14:05:52;35.30;99.90
22742;DHT22;11538;48.884;8.696;2023-06-22T14:08:22;35.20;99.90
22742;DHT22;11538;48.884;8.696;2023-06-22T14:11:07;35.00;99.90
22742;DHT22;11538;48.884;8.696;2023-06-22T14:13:34;34.70;99.90
22742;DHT22;11538;48.884;8.696;2023-06-22T14:16:02;34.50;99.90
22742;DHT22;11538;48.884;8.696;2023-06-22T14:18:31;34.20;99.90
22742;DHT22;11538;48.884;8.696;2023-06-22T14:20:57;33.90;99.90
22742;DHT22;11538;48.884;8.696;2023-06-22T14:23:24;33.80;99.90
22742;DHT22;11538;48.884;8.696;2023-06-22T14:25:51;33.60;99.90
22742;DHT22;11538;48.884;8.696;2023-06-22T14:28:18;33.50;99.90
22742;DHT22;11538;48.884;8.696;2023-06-22T14:30:45;33.40;99.90
22742;DHT22;11538;48.884;8.696;2023-06-22T14:33:12;33.50;99.90
22742;DHT22;11538;48.884;8.696;2023-06-22T14:35:39;33.40;99.90
22742;DHT22;11538;48.884;8.696;2023-06-22T14:38:06;33.30;99.90
22742;DHT22;11538;48.884;8.696;2023-06-22T14:40:33;33.20;99.90
22742;DHT22;11538;48.884;8.696;2023-06-22T14:43:19;33.00;99.90
22742;DHT22;11538;48.884;8.696;2023-06-22T14:45:46;32.80;99.90
22742;DHT22;11538;48.884;8.696;2023-06-22T14:48:13;32.70;99.90
22742;DHT22;11538;48.884;8.696;2023-06-22T14:50:40;32.70;99.90
22742;DHT22;11538;48.884;8.696;2023-06-22T14:53:06;32.80;99.90
22742;DHT22;11538;48.884;8.696;2023-06-22T14:55:34;33.20;99.90
22742;DHT22;11538;48.884;8.696;2023-06-22T14:58:01;33.50;99.90
22742;DHT22;11538;48.884;8.696;2023-06-22T15:00:28;33.60;99.90
22742;DHT22;11538;48.884;8.696;2023-06-22T15:02:55;33.60;99.90
22742;DHT22;11538;48.884;8.696;2023-06-22T15:05:23;33.40;99.90
22742;DHT22;11538;48.884;8.696;2023-06-22T15:07:51;33.20;99.90
22742;DHT22;11538;48.884;8.696;2023-06-22T15:10:18;33.00;99.90
22742;DHT22;11538;48.884;8.696;2023-06-22T15:12:45;32.80;99.90
22742;DHT22;11538;48.884;8.696;2023-06-22T15:15:12;32.60;99.90
22742;DHT22;11538;48.884;8.696;2023-06-22T15:17:39;32.50;99.90
22742;DHT22;11538;48.884;8.696;2023-06-22T15:20:06;32.30;99.90
22742;DHT22;11538;48.884;8.696;2023-06-22T15:22:35;32.30;99.90
22742;DHT22;11538;48.884;8.696;2023-06-22T15:25:02;32.10;99.90
22742;DHT22;11538;48.884;8.696;2023-06-22T15:27:29;31.90;99.90
22742;DHT22;11538;48.884;8.696;2023-06-22T15:29:56;31.80;99.90
22742;DHT22;11538;48.884;8.696;2023-06-22T15:32:25;31.70;99.90
22742;DHT22;11538;48.884;8.696;2023-06-22T15:34:52;31.70;99.90
22742;DHT22;11538;48.884;8.696;2023-06-22T15:37:20;31.70;99.90
22742;DHT22;11538;48.884;8.696;2023-06-22T15:39:47;31.70;99.90
22742;DHT22;11538;48.884;8.696;2023-06-22T15:42:14;31.70;99.90